TimeCDT,TemperatureF,Dew PointF,Humidity,Sea Level PressureIn,VisibilityMPH,Wind Direction,Wind SpeedMPH,Gust SpeedMPH,PrecipitationIn,Events,Conditions,WindDirDegrees,DateUTC
12:10 AM,64.4,64.4,100,30.03,10.0,SSW,4.6,-,N/A,,Clear,210,2013-07-25 05:10:00
12:30 AM,64.4,64.4,100,30.03,10.0,SSW,4.6,-,N/A,,Clear,210,2013-07-25 05:30:00
12:50 AM,64.4,62.6,94,30.03,10.0,SSW,6.9,-,N/A,,Clear,210,2013-07-25 05:50:00
1:10 AM,64.4,62.6,94,30.03,10.0,SW,6.9,-,N/A,,Clear,220,2013-07-25 06:10:00
1:30 AM,64.4,62.6,94,30.03,10.0,SSW,5.8,-,N/A,,Partly Cloudy,200,2013-07-25 06:30:00
1:50 AM,64.4,64.4,100,30.03,10.0,SSW,6.9,-,N/A,,Partly Cloudy,210,2013-07-25 06:50:00
2:10 AM,64.4,64.4,100,30.03,10.0,SSW,5.8,-,N/A,,Clear,200,2013-07-25 07:10:00
2:30 AM,64.4,62.6,94,30.03,10.0,SSW,6.9,-,N/A,,Clear,210,2013-07-25 07:30:00
2:50 AM,64.4,64.4,100,30.02,10.0,SSW,8.1,-,N/A,,Clear,210,2013-07-25 07:50:00
3:10 AM,64.4,64.4,100,30.01,10.0,SW,5.8,-,N/A,,Clear,220,2013-07-25 08:10:00
3:30 AM,64.4,64.4,100,30.00,10.0,SSW,6.9,-,N/A,,Clear,210,2013-07-25 08:30:00
3:50 AM,64.4,64.4,100,30.00,10.0,SW,6.9,-,N/A,,Clear,220,2013-07-25 08:50:00
4:10 AM,64.4,64.4,100,30.00,10.0,SW,10.4,-,N/A,,Clear,220,2013-07-25 09:10:00
4:30 AM,66.2,66.2,100,30.01,10.0,SW,9.2,-,N/A,,Clear,230,2013-07-25 09:30:00
4:50 AM,66.2,66.2,100,30.00,10.0,SW,8.1,-,N/A,,Clear,230,2013-07-25 09:50:00
5:10 AM,64.4,64.4,100,30.01,10.0,SW,6.9,-,N/A,,Clear,230,2013-07-25 10:10:00
5:30 AM,64.4,64.4,100,30.01,10.0,WSW,6.9,-,N/A,,Clear,240,2013-07-25 10:30:00
5:50 AM,64.4,64.4,100,30.01,10.0,SW,6.9,-,N/A,,Clear,230,2013-07-25 10:50:00
6:10 AM,62.6,62.6,100,30.02,10.0,WSW,5.8,-,N/A,,Clear,240,2013-07-25 11:10:00
6:30 AM,64.4,64.4,100,30.02,10.0,SW,6.9,-,N/A,,Clear,220,2013-07-25 11:30:00
6:50 AM,66.2,66.2,100,30.01,10.0,SW,6.9,-,N/A,,Clear,220,2013-07-25 11:50:00
7:10 AM,66.2,66.2,100,30.00,10.0,SW,8.1,-,N/A,,Clear,220,2013-07-25 12:10:00
7:30 AM,68.0,68.0,100,30.00,10.0,SSW,8.1,-,N/A,,Clear,210,2013-07-25 12:30:00
7:50 AM,68.0,68.0,100,30.00,10.0,SSW,9.2,-,N/A,,Clear,210,2013-07-25 12:50:00
8:10 AM,68.0,68.0,100,29.99,10.0,SSW,9.2,-,N/A,,Clear,210,2013-07-25 13:10:00
8:30 AM,68.0,68.0,100,29.99,10.0,SSW,9.2,-,N/A,,Clear,210,2013-07-25 13:30:00
8:50 AM,71.6,69.8,94,30.00,10.0,SW,6.9,-,N/A,,Clear,220,2013-07-25 13:50:00
9:10 AM,71.6,69.8,94,30.00,10.0,SW,5.8,-,N/A,,Clear,220,2013-07-25 14:10:00
9:30 AM,73.4,71.6,94,30.00,10.0,SSW,8.1,-,N/A,,Clear,210,2013-07-25 14:30:00
9:50 AM,73.4,71.6,94,30.01,10.0,WSW,6.9,17.3,N/A,,Clear,240,2013-07-25 14:50:00
10:10 AM,73.4,71.6,94,30.00,10.0,WSW,4.6,-,N/A,,Clear,240,2013-07-25 15:10:00
10:30 AM,73.4,71.6,94,30.01,10.0,West,6.9,-,N/A,,Clear,280,2013-07-25 15:30:00
10:50 AM,73.4,71.6,94,30.02,10.0,NNW,5.8,-,N/A,,Clear,330,2013-07-25 15:50:00
11:10 AM,73.4,71.6,94,30.02,10.0,NW,5.8,-,N/A,,Partly Cloudy,310,2013-07-25 16:10:00
11:30 AM,73.4,71.6,94,30.02,10.0,North,6.9,-,N/A,,Partly Cloudy,350,2013-07-25 16:30:00
11:50 AM,73.4,71.6,94,30.02,10.0,North,5.8,-,N/A,,Clear,10,2013-07-25 16:50:00
12:10 PM,73.4,71.6,94,30.02,10.0,North,5.8,-,N/A,,Clear,10,2013-07-25 17:10:00
12:30 PM,75.2,71.6,89,30.01,10.0,North,6.9,-,N/A,,Clear,350,2013-07-25 17:30:00
12:50 PM,75.2,68.0,78,30.01,10.0,NE,8.1,-,N/A,,Clear,40,2013-07-25 17:50:00
1:10 PM,77.0,68.0,74,30.01,10.0,NE,8.1,-,N/A,,Clear,40,2013-07-25 18:10:00
1:30 PM,77.0,66.2,69,30.01,10.0,NE,8.1,-,N/A,,Clear,40,2013-07-25 18:30:00
1:50 PM,75.2,66.2,73,30.00,10.0,North,6.9,-,N/A,,Clear,10,2013-07-25 18:50:00
2:10 PM,77.0,66.2,69,30.00,10.0,NE,5.8,-,N/A,,Clear,50,2013-07-25 19:10:00
2:30 PM,77.0,66.2,69,29.99,10.0,NE,9.2,-,N/A,,Clear,40,2013-07-25 19:30:00
2:50 PM,78.8,66.2,65,29.99,10.0,NNE,9.2,-,N/A,,Clear,30,2013-07-25 19:50:00
3:10 PM,77.0,64.4,65,29.99,10.0,North,9.2,-,N/A,,Clear,10,2013-07-25 20:10:00
3:30 PM,77.0,64.4,65,30.00,10.0,ENE,5.8,-,N/A,,Clear,60,2013-07-25 20:30:00
3:50 PM,77.0,66.2,69,30.00,10.0,ENE,4.6,-,N/A,,Clear,70,2013-07-25 20:50:00
4:10 PM,77.0,64.4,65,29.99,10.0,East,3.5,-,N/A,,Clear,90,2013-07-25 21:10:00
4:30 PM,77.0,64.4,65,29.99,10.0,NE,3.5,-,N/A,,Partly Cloudy,40,2013-07-25 21:30:00
4:50 PM,78.8,64.4,61,29.99,10.0,NNW,4.6,-,N/A,,Partly Cloudy,330,2013-07-25 21:50:00
5:10 PM,78.8,64.4,61,29.98,10.0,NW,6.9,-,N/A,,Clear,320,2013-07-25 22:10:00
5:30 PM,77.0,66.2,69,29.98,10.0,NNW,9.2,-,N/A,,Partly Cloudy,330,2013-07-25 22:30:00
5:50 PM,77.0,62.6,61,29.98,10.0,NNW,10.4,-,N/A,,Partly Cloudy,340,2013-07-25 22:50:00
6:10 PM,77.0,62.6,61,29.97,10.0,NNW,8.1,-,N/A,,Clear,340,2013-07-25 23:10:00
6:30 PM,77.0,60.8,57,29.97,10.0,North,8.1,-,N/A,,Clear,360,2013-07-25 23:30:00
6:50 PM,75.2,60.8,61,29.98,10.0,North,8.1,-,N/A,,Clear,360,2013-07-25 23:50:00
7:10 PM,73.4,62.6,69,29.99,10.0,North,5.8,-,N/A,,Clear,350,2013-07-26 00:10:00
7:30 PM,75.2,62.6,65,29.98,10.0,NNW,5.8,-,N/A,,Clear,340,2013-07-26 00:30:00
7:50 PM,73.4,64.4,73,29.99,10.0,NNW,6.9,-,N/A,,Clear,340,2013-07-26 00:50:00
8:10 PM,71.6,64.4,78,29.99,10.0,NNW,5.8,-,N/A,,Clear,340,2013-07-26 01:10:00
8:30 PM,69.8,64.4,83,29.99,10.0,North,6.9,-,N/A,,Scattered Clouds,350,2013-07-26 01:30:00
8:50 PM,68.0,64.4,88,30.00,10.0,NNW,4.6,-,N/A,,Scattered Clouds,340,2013-07-26 01:50:00
9:10 PM,66.2,66.2,100,30.01,10.0,NNW,6.9,-,N/A,,Overcast,330,2013-07-26 02:10:00
9:30 PM,68.0,66.2,94,30.02,10.0,North,4.6,-,N/A,Rain,Light Rain,350,2013-07-26 02:30:00
9:50 PM,66.2,66.2,100,30.02,10.0,NNW,6.9,-,N/A,,Mostly Cloudy,340,2013-07-26 02:50:00
10:10 PM,66.2,66.2,100,30.02,10.0,NW,3.5,-,N/A,,Mostly Cloudy,320,2013-07-26 03:10:00
10:30 PM,66.2,66.2,100,30.02,10.0,NW,4.6,-,N/A,,Scattered Clouds,310,2013-07-26 03:30:00
10:50 PM,64.4,64.4,100,30.02,10.0,NW,4.6,-,N/A,,Clear,310,2013-07-26 03:50:00
11:10 PM,64.4,64.4,100,30.03,10.0,NW,6.9,-,N/A,,Mostly Cloudy,310,2013-07-26 04:10:00
11:30 PM,64.4,64.4,100,30.03,10.0,NW,8.1,-,N/A,,Overcast,310,2013-07-26 04:30:00
11:50 PM,62.6,62.6,100,30.04,10.0,NW,9.2,-,N/A,,Mostly Cloudy,320,2013-07-26 04:50:00